sensor_id;sensor_type;location;lat;lon;timestamp;temperature;humidity
23395;DHT22;11870;53.084;18.206;2023-05-07T00:03:25;3.00;99.90
23395;DHT22;11870;53.084;18.206;2023-05-07T00:05:52;2.80;99.90
23395;DHT22;11870;53.084;18.206;2023-05-07T00:08:19;2.70;99.90
23395;DHT22;11870;53.084;18.206;2023-05-07T00:10:46;2.80;99.90
23395;DHT22;11870;53.084;18.206;2023-05-07T00:37:37;2.40;99.90
23395;DHT22;11870;53.084;18.206;2023-05-07T00:40:03;2.20;99.90
23395;DHT22;11870;53.084;18.206;2023-05-07T00:44:59;2.20;99.90
23395;DHT22;11870;53.084;18.206;2023-05-07T00:47:25;2.10;99.90
23395;DHT22;11870;53.084;18.206;2023-05-07T00:49:51;2.10;99.90
23395;DHT22;11870;53.084;18.206;2023-05-07T00:52:20;2.10;99.90
23395;DHT22;11870;53.084;18.206;2023-05-07T00:54:46;2.00;99.90
23395;DHT22;11870;53.084;18.206;2023-05-07T00:57:13;5.20;99.90
23395;DHT22;11870;53.084;18.206;2023-05-07T00:59:39;1.90;99.90
23395;DHT22;11870;53.084;18.206;2023-05-07T01:02:06;1.90;99.90
23395;DHT22;11870;53.084;18.206;2023-05-07T01:04:32;4.50;99.90
23395;DHT22;11870;53.084;18.206;2023-05-07T01:06:59;1.80;99.90
23395;DHT22;11870;53.084;18.206;2023-05-07T01:09:26;1.10;99.90
23395;DHT22;11870;53.084;18.206;2023-05-07T01:16:47;1.60;99.90
23395;DHT22;11870;53.084;18.206;2023-05-07T01:19:14;1.50;99.90
23395;DHT22;11870;53.084;18.206;2023-05-07T01:21:46;1.50;99.90
23395;DHT22;11870;53.084;18.206;2023-05-07T01:26:39;1.50;99.90
23395;DHT22;11870;53.084;18.206;2023-05-07T01:31:33;1.30;99.90
23395;DHT22;11870;53.084;18.206;2023-05-07T01:34:01;1.40;99.90
23395;DHT22;11870;53.084;18.206;2023-05-07T01:36:29;1.40;99.90
23395;DHT22;11870;53.084;18.206;2023-05-07T01:43:50;1.40;99.90
23395;DHT22;11870;53.084;18.206;2023-05-07T01:48:45;1.40;99.90
23395;DHT22;11870;53.084;18.206;2023-05-07T01:53:39;1.40;99.90
23395;DHT22;11870;53.084;18.206;2023-05-07T01:56:07;1.10;99.90
23395;DHT22;11870;53.084;18.206;2023-05-07T02:05:52;1.60;99.90
23395;DHT22;11870;53.084;18.206;2023-05-07T02:08:17;1.20;99.90
23395;DHT22;11870;53.084;18.206;2023-05-07T02:18:05;1.90;99.90
23395;DHT22;11870;53.084;18.206;2023-05-07T02:22:58;1.90;99.90
23395;DHT22;11870;53.084;18.206;2023-05-07T02:27:51;2.00;99.90
23395;DHT22;11870;53.084;18.206;2023-05-07T02:32:43;1.90;99.90
23395;DHT22;11870;53.084;18.206;2023-05-07T02:40:02;2.00;99.90
23395;DHT22;11870;53.084;18.206;2023-05-07T02:42:29;2.00;99.90
23395;DHT22;11870;53.084;18.206;2023-05-07T02:49:48;1.80;99.90
23395;DHT22;11870;53.084;18.206;2023-05-07T02:52:14;1.50;99.90
23395;DHT22;11870;53.084;18.206;2023-05-07T02:57:06;1.60;99.90
23395;DHT22;11870;53.084;18.206;2023-05-07T03:01:59;1.50;99.90
23395;DHT22;11870;53.084;18.206;2023-05-07T03:11:44;1.20;99.90
23395;DHT22;11870;53.084;18.206;2023-05-07T03:21:29;1.20;99.90
23395;DHT22;11870;53.084;18.206;2023-05-07T03:28:49;1.10;99.90
23395;DHT22;11870;53.084;18.206;2023-05-07T03:33:55;1.30;99.90
23395;DHT22;11870;53.084;18.206;2023-05-07T03:36:21;2.20;99.90
23395;DHT22;11870;53.084;18.206;2023-05-07T03:38:48;1.70;99.90
23395;DHT22;11870;53.084;18.206;2023-05-07T03:48:33;1.90;99.90
23395;DHT22;11870;53.084;18.206;2023-05-07T03:53:26;2.00;99.90
23395;DHT22;11870;53.084;18.206;2023-05-07T03:55:52;1.50;99.90
23395;DHT22;11870;53.084;18.206;2023-05-07T04:05:37;2.70;99.90
23395;DHT22;11870;53.084;18.206;2023-05-07T04:08:04;2.70;99.90
23395;DHT22;11870;53.084;18.206;2023-05-07T04:17:50;3.40;99.90
23395;DHT22;11870;53.084;18.206;2023-05-07T04:20:16;3.30;99.90
23395;DHT22;11870;53.084;18.206;2023-05-07T04:22:43;3.70;99.90
23395;DHT22;11870;53.084;18.206;2023-05-07T04:25:09;3.60;99.90
23395;DHT22;11870;53.084;18.206;2023-05-07T04:27:36;3.90;99.90
23395;DHT22;11870;53.084;18.206;2023-05-07T04:30:02;4.00;99.90
23395;DHT22;11870;53.084;18.206;2023-05-07T04:32:29;4.30;99.90
23395;DHT22;11870;53.084;18.206;2023-05-07T04:34:56;7.30;99.90
23395;DHT22;11870;53.084;18.206;2023-05-07T04:37:22;4.90;99.90
23395;DHT22;11870;53.084;18.206;2023-05-07T04:42:18;5.60;99.90
23395;DHT22;11870;53.084;18.206;2023-05-07T04:44:44;5.80;99.90
23395;DHT22;11870;53.084;18.206;2023-05-07T04:47:11;6.10;99.90
23395;DHT22;11870;53.084;18.206;2023-05-07T04:49:38;9.40;99.90
23395;DHT22;11870;53.084;18.206;2023-05-07T04:52:04;6.80;99.90
23395;DHT22;11870;53.084;18.206;2023-05-07T04:54:30;7.00;99.90
23395;DHT22;11870;53.084;18.206;2023-05-07T04:56:56;7.50;99.90
23395;DHT22;11870;53.084;18.206;2023-05-07T04:59:22;7.70;99.90
23395;DHT22;11870;53.084;18.206;2023-05-07T05:11:34;10.40;99.90
23395;DHT22;11870;53.084;18.206;2023-05-07T05:14:00;12.70;99.90
23395;DHT22;11870;53.084;18.206;2023-05-07T05:16:26;11.20;99.90
23395;DHT22;11870;53.084;18.206;2023-05-07T05:18:52;11.30;99.90
23395;DHT22;11870;53.084;18.206;2023-05-07T05:21:20;13.00;99.90
23395;DHT22;11870;53.084;18.206;2023-05-07T05:23:46;13.50;99.90
23395;DHT22;11870;53.084;18.206;2023-05-07T05:26:12;13.20;99.90
23395;DHT22;11870;53.084;18.206;2023-05-07T05:28:37;14.50;99.90
23395;DHT22;11870;53.084;18.206;2023-05-07T05:31:04;16.40;99.90
23395;DHT22;11870;53.084;18.206;2023-05-07T05:33:30;16.50;99.90
23395;DHT22;11870;53.084;18.206;2023-05-07T05:35:56;16.20;99.90
23395;DHT22;11870;53.084;18.206;2023-05-07T05:38:22;18.40;99.90
23395;DHT22;11870;53.084;18.206;2023-05-07T05:40:48;17.60;99.90
23395;DHT22;11870;53.084;18.206;2023-05-07T05:43:14;18.30;99.90
23395;DHT22;11870;53.084;18.206;2023-05-07T05:45:40;19.50;99.90
23395;DHT22;11870;53.084;18.206;2023-05-07T05:48:06;19.80;99.90
23395;DHT22;11870;53.084;18.206;2023-05-07T05:50:32;20.40;99.90
23395;DHT22;11870;53.084;18.206;2023-05-07T05:52:58;21.00;99.90
23395;DHT22;11870;53.084;18.206;2023-05-07T05:55:24;21.30;99.90
23395;DHT22;11870;53.084;18.206;2023-05-07T05:57:50;22.10;99.90
23395;DHT22;11870;53.084;18.206;2023-05-07T06:00:16;22.10;99.90
23395;DHT22;11870;53.084;18.206;2023-05-07T06:02:42;22.40;99.90
23395;DHT22;11870;53.084;18.206;2023-05-07T06:05:09;22.70;99.90
23395;DHT22;11870;53.084;18.206;2023-05-07T06:07:35;23.40;99.90
23395;DHT22;11870;53.084;18.206;2023-05-07T06:10:01;24.00;77.30
23395;DHT22;11870;53.084;18.206;2023-05-07T06:12:27;24.50;71.10
23395;DHT22;11870;53.084;18.206;2023-05-07T06:14:53;25.20;70.40
23395;DHT22;11870;53.084;18.206;2023-05-07T06:17:19;26.00;54.60
23395;DHT22;11870;53.084;18.206;2023-05-07T06:19:45;26.70;56.40
23395;DHT22;11870;53.084;18.206;2023-05-07T06:22:11;27.20;53.90
23395;DHT22;11870;53.084;18.206;2023-05-07T06:24:37;27.80;50.60
23395;DHT22;11870;53.084;18.206;2023-05-07T06:27:03;28.40;48.20
23395;DHT22;11870;53.084;18.206;2023-05-07T06:29:29;29.10;48.50
23395;DHT22;11870;53.084;18.206;2023-05-07T06:32:06;29.20;42.30
23395;DHT22;11870;53.084;18.206;2023-05-07T06:34:33;29.60;37.90
23395;DHT22;11870;53.084;18.206;2023-05-07T06:36:58;29.70;40.20
23395;DHT22;11870;53.084;18.206;2023-05-07T06:39:24;30.30;42.20
23395;DHT22;11870;53.084;18.206;2023-05-07T06:41:50;30.30;33.70
23395;DHT22;11870;53.084;18.206;2023-05-07T06:44:16;30.40;35.60
23395;DHT22;11870;53.084;18.206;2023-05-07T06:46:42;30.90;34.60
23395;DHT22;11870;53.084;18.206;2023-05-07T06:49:08;31.20;28.50
23395;DHT22;11870;53.084;18.206;2023-05-07T06:51:34;31.20;28.00
23395;DHT22;11870;53.084;18.206;2023-05-07T06:54:00;31.50;30.40
23395;DHT22;11870;53.084;18.206;2023-05-07T06:56:26;31.50;26.30
23395;DHT22;11870;53.084;18.206;2023-05-07T06:58:52;31.70;27.60
23395;DHT22;11870;53.084;18.206;2023-05-07T07:01:17;32.00;27.50
23395;DHT22;11870;53.084;18.206;2023-05-07T07:03:43;32.30;26.10
23395;DHT22;11870;53.084;18.206;2023-05-07T07:06:09;32.00;25.60
23395;DHT22;11870;53.084;18.206;2023-05-07T07:08:35;32.30;25.30
23395;DHT22;11870;53.084;18.206;2023-05-07T07:11:01;32.20;25.20
23395;DHT22;11870;53.084;18.206;2023-05-07T07:13:27;32.70;24.60
23395;DHT22;11870;53.084;18.206;2023-05-07T07:15:53;33.00;22.00
23395;DHT22;11870;53.084;18.206;2023-05-07T07:18:19;33.10;25.60
23395;DHT22;11870;53.084;18.206;2023-05-07T07:20:45;33.30;21.40
23395;DHT22;11870;53.084;18.206;2023-05-07T07:23:12;33.10;21.40
23395;DHT22;11870;53.084;18.206;2023-05-07T07:25:37;32.80;22.30
23395;DHT22;11870;53.084;18.206;2023-05-07T07:28:05;32.60;22.80
23395;DHT22;11870;53.084;18.206;2023-05-07T07:30:31;32.60;22.30
23395;DHT22;11870;53.084;18.206;2023-05-07T07:32:57;33.20;20.50
23395;DHT22;11870;53.084;18.206;2023-05-07T07:35:29;33.20;21.60
23395;DHT22;11870;53.084;18.206;2023-05-07T07:37:56;33.40;22.10
23395;DHT22;11870;53.084;18.206;2023-05-07T07:40:22;33.90;21.50
23395;DHT22;11870;53.084;18.206;2023-05-07T07:42:48;33.80;21.90
23395;DHT22;11870;53.084;18.206;2023-05-07T07:45:14;33.80;20.00
23395;DHT22;11870;53.084;18.206;2023-05-07T07:47:40;33.90;20.90
23395;DHT22;11870;53.084;18.206;2023-05-07T07:50:06;33.60;20.10
23395;DHT22;11870;53.084;18.206;2023-05-07T07:52:33;34.00;22.00
23395;DHT22;11870;53.084;18.206;2023-05-07T07:54:59;34.70;18.40
23395;DHT22;11870;53.084;18.206;2023-05-07T07:57:25;34.90;19.80
23395;DHT22;11870;53.084;18.206;2023-05-07T07:59:51;35.40;20.00
23395;DHT22;11870;53.084;18.206;2023-05-07T08:02:17;35.70;19.60
23395;DHT22;11870;53.084;18.206;2023-05-07T08:04:43;35.90;18.30
23395;DHT22;11870;53.084;18.206;2023-05-07T08:07:10;36.30;17.60
23395;DHT22;11870;53.084;18.206;2023-05-07T08:09:37;36.30;18.00
23395;DHT22;11870;53.084;18.206;2023-05-07T08:12:04;35.80;18.50
23395;DHT22;11870;53.084;18.206;2023-05-07T08:14:30;35.90;18.70
23395;DHT22;11870;53.084;18.206;2023-05-07T08:16:56;36.00;17.30
23395;DHT22;11870;53.084;18.206;2023-05-07T08:19:22;36.20;18.10
23395;DHT22;11870;53.084;18.206;2023-05-07T08:21:48;36.60;17.40
23395;DHT22;11870;53.084;18.206;2023-05-07T08:24:14;36.40;18.00
23395;DHT22;11870;53.084;18.206;2023-05-07T08:26:41;35.60;18.50
23395;DHT22;11870;53.084;18.206;2023-05-07T08:29:07;35.90;18.70
23395;DHT22;11870;53.084;18.206;2023-05-07T08:31:33;36.10;18.40
23395;DHT22;11870;53.084;18.206;2023-05-07T08:33:59;36.80;17.90
23395;DHT22;11870;53.084;18.206;2023-05-07T08:36:25;36.70;17.40
23395;DHT22;11870;53.084;18.206;2023-05-07T08:38:52;36.70;17.30
23395;DHT22;11870;53.084;18.206;2023-05-07T08:41:18;36.60;17.00
23395;DHT22;11870;53.084;18.206;2023-05-07T08:43:48;37.10;16.40
23395;DHT22;11870;53.084;18.206;2023-05-07T08:46:22;36.90;16.00
23395;DHT22;11870;53.084;18.206;2023-05-07T08:48:49;35.80;17.20
23395;DHT22;11870;53.084;18.206;2023-05-07T08:51:20;35.70;17.80
23395;DHT22;11870;53.084;18.206;2023-05-07T08:53:47;36.00;17.90
23395;DHT22;11870;53.084;18.206;2023-05-07T08:56:17;36.80;17.90
23395;DHT22;11870;53.084;18.206;2023-05-07T08:58:43;37.90;17.20
23395;DHT22;11870;53.084;18.206;2023-05-07T09:01:13;37.70;15.90
23395;DHT22;11870;53.084;18.206;2023-05-07T09:03:40;37.90;15.80
23395;DHT22;11870;53.084;18.206;2023-05-07T09:06:06;37.20;16.10
23395;DHT22;11870;53.084;18.206;2023-05-07T09:08:33;37.20;17.00
23395;DHT22;11870;53.084;18.206;2023-05-07T09:10:59;37.60;17.20
23395;DHT22;11870;53.084;18.206;2023-05-07T09:13:27;38.00;15.60
23395;DHT22;11870;53.084;18.206;2023-05-07T09:15:53;37.40;16.50
23395;DHT22;11870;53.084;18.206;2023-05-07T09:18:19;37.00;16.30
23395;DHT22;11870;53.084;18.206;2023-05-07T09:20:45;36.60;17.30
23395;DHT22;11870;53.084;18.206;2023-05-07T09:23:10;36.80;16.20
23395;DHT22;11870;53.084;18.206;2023-05-07T09:25:37;36.60;16.70
23395;DHT22;11870;53.084;18.206;2023-05-07T09:28:04;36.60;16.10
23395;DHT22;11870;53.084;18.206;2023-05-07T09:30:34;36.20;15.90
23395;DHT22;11870;53.084;18.206;2023-05-07T09:33:02;35.80;16.70
23395;DHT22;11870;53.084;18.206;2023-05-07T09:35:30;35.20;17.10
23395;DHT22;11870;53.084;18.206;2023-05-07T09:37:58;35.00;16.80
23395;DHT22;11870;53.084;18.206;2023-05-07T09:40:27;35.40;17.10
23395;DHT22;11870;53.084;18.206;2023-05-07T09:42:53;35.00;16.30
23395;DHT22;11870;53.084;18.206;2023-05-07T09:45:26;34.50;17.20
23395;DHT22;11870;53.084;18.206;2023-05-07T09:47:55;32.90;18.30
23395;DHT22;11870;53.084;18.206;2023-05-07T09:50:27;32.50;17.40
23395;DHT22;11870;53.084;18.206;2023-05-07T09:52:57;30.40;19.90
23395;DHT22;11870;53.084;18.206;2023-05-07T09:55:23;29.10;20.40
23395;DHT22;11870;53.084;18.206;2023-05-07T09:57:51;27.60;21.90
23395;DHT22;11870;53.084;18.206;2023-05-07T10:00:22;25.80;23.90
23395;DHT22;11870;53.084;18.206;2023-05-07T10:02:51;24.80;25.70
23395;DHT22;11870;53.084;18.206;2023-05-07T10:05:18;25.20;25.40
23395;DHT22;11870;53.084;18.206;2023-05-07T10:07:46;24.40;25.90
23395;DHT22;11870;53.084;18.206;2023-05-07T10:10:12;24.60;26.50
23395;DHT22;11870;53.084;18.206;2023-05-07T10:12:40;24.40;24.80
23395;DHT22;11870;53.084;18.206;2023-05-07T10:15:07;24.20;26.30
23395;DHT22;11870;53.084;18.206;2023-05-07T10:17:38;23.70;26.20
23395;DHT22;11870;53.084;18.206;2023-05-07T10:20:05;23.90;27.70
23395;DHT22;11870;53.084;18.206;2023-05-07T10:22:46;22.60;27.60
23395;DHT22;11870;53.084;18.206;2023-05-07T10:25:16;22.00;28.40
23395;DHT22;11870;53.084;18.206;2023-05-07T10:27:43;22.80;29.70
23395;DHT22;11870;53.084;18.206;2023-05-07T10:32:55;19.60;33.80
23395;DHT22;11870;53.084;18.206;2023-05-07T10:35:29;19.20;33.50
23395;DHT22;11870;53.084;18.206;2023-05-07T10:37:57;18.80;34.00
23395;DHT22;11870;53.084;18.206;2023-05-07T10:40:23;20.40;35.30
23395;DHT22;11870;53.084;18.206;2023-05-07T10:42:56;20.30;36.30
23395;DHT22;11870;53.084;18.206;2023-05-07T10:45:22;20.60;37.80
23395;DHT22;11870;53.084;18.206;2023-05-07T10:48:17;18.30;36.60
23395;DHT22;11870;53.084;18.206;2023-05-07T10:50:44;18.30;35.10
23395;DHT22;11870;53.084;18.206;2023-05-07T10:55:48;17.20;37.10
23395;DHT22;11870;53.084;18.206;2023-05-07T10:58:24;16.90;37.90
23395;DHT22;11870;53.084;18.206;2023-05-07T11:01:01;16.80;38.40
23395;DHT22;11870;53.084;18.206;2023-05-07T11:03:28;16.60;38.70
23395;DHT22;11870;53.084;18.206;2023-05-07T11:06:15;18.30;38.40
23395;DHT22;11870;53.084;18.206;2023-05-07T11:09:07;16.80;38.10
23395;DHT22;11870;53.084;18.206;2023-05-07T11:11:49;19.00;39.80
23395;DHT22;11870;53.084;18.206;2023-05-07T11:17:07;16.80;38.60
23395;DHT22;11870;53.084;18.206;2023-05-07T11:19:52;16.80;40.00
23395;DHT22;11870;53.084;18.206;2023-05-07T11:25:02;18.20;39.50
23395;DHT22;11870;53.084;18.206;2023-05-07T11:27:29;17.30;40.80
23395;DHT22;11870;53.084;18.206;2023-05-07T11:29:56;17.50;40.70
23395;DHT22;11870;53.084;18.206;2023-05-07T11:32:23;17.00;41.50
23395;DHT22;11870;53.084;18.206;2023-05-07T11:34:53;19.10;40.90
23395;DHT22;11870;53.084;18.206;2023-05-07T11:37:20;16.90;40.30
23395;DHT22;11870;53.084;18.206;2023-05-07T11:39:46;16.80;38.80
23395;DHT22;11870;53.084;18.206;2023-05-07T11:42:29;16.60;38.70
23395;DHT22;11870;53.084;18.206;2023-05-07T11:44:55;16.60;40.10
23395;DHT22;11870;53.084;18.206;2023-05-07T11:47:21;16.70;39.60
23395;DHT22;11870;53.084;18.206;2023-05-07T11:49:52;17.80;40.50
23395;DHT22;11870;53.084;18.206;2023-05-07T11:52:20;17.20;37.90
23395;DHT22;11870;53.084;18.206;2023-05-07T11:54:57;16.90;38.70
23395;DHT22;11870;53.084;18.206;2023-05-07T11:57:24;16.60;38.80
23395;DHT22;11870;53.084;18.206;2023-05-07T11:59:54;16.50;38.90
23395;DHT22;11870;53.084;18.206;2023-05-07T12:02:21;16.70;39.30
23395;DHT22;11870;53.084;18.206;2023-05-07T12:04:47;16.10;39.70
23395;DHT22;11870;53.084;18.206;2023-05-07T12:07:14;17.80;40.50
23395;DHT22;11870;53.084;18.206;2023-05-07T12:09:41;17.50;40.80
23395;DHT22;11870;53.084;18.206;2023-05-07T12:12:07;17.50;40.40
23395;DHT22;11870;53.084;18.206;2023-05-07T12:14:41;16.10;41.00
23395;DHT22;11870;53.084;18.206;2023-05-07T12:17:12;18.60;41.40
23395;DHT22;11870;53.084;18.206;2023-05-07T12:19:40;16.20;39.60
23395;DHT22;11870;53.084;18.206;2023-05-07T12:22:10;16.30;38.50
23395;DHT22;11870;53.084;18.206;2023-05-07T12:24:56;18.00;39.30
23395;DHT22;11870;53.084;18.206;2023-05-07T12:27:22;16.30;38.20
23395;DHT22;11870;53.084;18.206;2023-05-07T12:29:50;16.50;37.20
23395;DHT22;11870;53.084;18.206;2023-05-07T12:32:17;17.10;38.90
23395;DHT22;11870;53.084;18.206;2023-05-07T12:34:44;17.30;38.10
23395;DHT22;11870;53.084;18.206;2023-05-07T12:37:11;16.60;37.50
23395;DHT22;11870;53.084;18.206;2023-05-07T12:39:43;18.50;38.20
23395;DHT22;11870;53.084;18.206;2023-05-07T12:42:15;16.80;36.90
23395;DHT22;11870;53.084;18.206;2023-05-07T12:44:41;16.60;39.70
23395;DHT22;11870;53.084;18.206;2023-05-07T12:47:10;16.80;39.60
23395;DHT22;11870;53.084;18.206;2023-05-07T12:49:36;18.00;39.40
23395;DHT22;11870;53.084;18.206;2023-05-07T12:52:05;16.50;39.30
23395;DHT22;11870;53.084;18.206;2023-05-07T12:54:32;16.70;37.70
23395;DHT22;11870;53.084;18.206;2023-05-07T12:57:08;19.50;39.30
23395;DHT22;11870;53.084;18.206;2023-05-07T12:59:41;16.50;38.00
23395;DHT22;11870;53.084;18.206;2023-05-07T13:02:08;16.40;37.50
23395;DHT22;11870;53.084;18.206;2023-05-07T13:04:35;18.60;38.90
23395;DHT22;11870;53.084;18.206;2023-05-07T13:07:01;17.30;38.60
23395;DHT22;11870;53.084;18.206;2023-05-07T13:09:28;16.40;36.80
23395;DHT22;11870;53.084;18.206;2023-05-07T13:11:58;17.20;36.70
23395;DHT22;11870;53.084;18.206;2023-05-07T13:14:26;18.00;37.20
23395;DHT22;11870;53.084;18.206;2023-05-07T13:16:52;18.60;38.70
23395;DHT22;11870;53.084;18.206;2023-05-07T13:19:18;16.40;37.30
23395;DHT22;11870;53.084;18.206;2023-05-07T13:21:44;16.60;37.50
23395;DHT22;11870;53.084;18.206;2023-05-07T13:24:10;16.40;37.60
23395;DHT22;11870;53.084;18.206;2023-05-07T13:26:36;16.60;36.60
23395;DHT22;11870;53.084;18.206;2023-05-07T13:29:02;16.90;37.20
23395;DHT22;11870;53.084;18.206;2023-05-07T13:31:28;16.70;37.90
23395;DHT22;11870;53.084;18.206;2023-05-07T13:33:54;16.90;38.60
23395;DHT22;11870;53.084;18.206;2023-05-07T13:36:22;17.50;36.70
23395;DHT22;11870;53.084;18.206;2023-05-07T13:38:47;19.20;37.00
23395;DHT22;11870;53.084;18.206;2023-05-07T13:41:14;17.00;35.20
23395;DHT22;11870;53.084;18.206;2023-05-07T13:43:40;16.80;34.70
23395;DHT22;11870;53.084;18.206;2023-05-07T13:46:06;17.20;38.70
23395;DHT22;11870;53.084;18.206;2023-05-07T13:48:32;17.60;39.80
23395;DHT22;11870;53.084;18.206;2023-05-07T13:50:58;18.10;38.70
23395;DHT22;11870;53.084;18.206;2023-05-07T13:53:24;19.90;39.10
23395;DHT22;11870;53.084;18.206;2023-05-07T13:55:50;16.80;38.10
23395;DHT22;11870;53.084;18.206;2023-05-07T13:58:16;17.00;38.60
23395;DHT22;11870;53.084;18.206;2023-05-07T14:00:42;16.70;37.80
23395;DHT22;11870;53.084;18.206;2023-05-07T14:03:08;16.40;38.20
23395;DHT22;11870;53.084;18.206;2023-05-07T14:05:34;17.40;39.20
23395;DHT22;11870;53.084;18.206;2023-05-07T14:08:00;18.90;40.70
23395;DHT22;11870;53.084;18.206;2023-05-07T14:10:26;18.10;40.50
23395;DHT22;11870;53.084;18.206;2023-05-07T14:12:52;15.90;38.60
23395;DHT22;11870;53.084;18.206;2023-05-07T14:15:18;16.80;38.30
23395;DHT22;11870;53.084;18.206;2023-05-07T14:17:44;17.10;38.70
23395;DHT22;11870;53.084;18.206;2023-05-07T14:20:12;17.50;38.10
23395;DHT22;11870;53.084;18.206;2023-05-07T14:22:38;17.50;38.80
23395;DHT22;11870;53.084;18.206;2023-05-07T14:25:04;16.50;38.50
23395;DHT22;11870;53.084;18.206;2023-05-07T14:27:30;15.70;38.00
23395;DHT22;11870;53.084;18.206;2023-05-07T14:29:56;16.50;38.00
23395;DHT22;11870;53.084;18.206;2023-05-07T14:32:22;15.80;37.00
23395;DHT22;11870;53.084;18.206;2023-05-07T14:34:48;16.80;37.30
23395;DHT22;11870;53.084;18.206;2023-05-07T14:37:14;17.40;39.00
23395;DHT22;11870;53.084;18.206;2023-05-07T14:39:40;16.60;39.00
23395;DHT22;11870;53.084;18.206;2023-05-07T14:42:06;16.80;38.90
23395;DHT22;11870;53.084;18.206;2023-05-07T14:44:35;16.80;38.10
23395;DHT22;11870;53.084;18.206;2023-05-07T14:47:01;16.00;37.20
23395;DHT22;11870;53.084;18.206;2023-05-07T14:49:27;17.30;36.80
23395;DHT22;11870;53.084;18.206;2023-05-07T14:51:53;16.90;37.40
23395;DHT22;11870;53.084;18.206;2023-05-07T14:54:19;15.70;37.80
23395;DHT22;11870;53.084;18.206;2023-05-07T14:56:45;15.60;39.00
23395;DHT22;11870;53.084;18.206;2023-05-07T14:59:12;15.60;37.40
23395;DHT22;11870;53.084;18.206;2023-05-07T15:01:38;15.50;38.70
23395;DHT22;11870;53.084;18.206;2023-05-07T15:04:06;15.40;38.40
23395;DHT22;11870;53.084;18.206;2023-05-07T15:06:32;16.00;39.60
23395;DHT22;11870;53.084;18.206;2023-05-07T15:08:59;17.10;40.00
23395;DHT22;11870;53.084;18.206;2023-05-07T15:11:25;17.90;40.20
23395;DHT22;11870;53.084;18.206;2023-05-07T15:13:51;15.80;38.80
23395;DHT22;11870;53.084;18.206;2023-05-07T15:16:17;17.10;39.50
23395;DHT22;11870;53.084;18.206;2023-05-07T15:18:43;16.00;38.90
23395;DHT22;11870;53.084;18.206;2023-05-07T15:21:10;15.50;39.90
23395;DHT22;11870;53.084;18.206;2023-05-07T15:23:36;15.50;38.10
23395;DHT22;11870;53.084;18.206;2023-05-07T15:26:03;15.50;38.20
23395;DHT22;11870;53.084;18.206;2023-05-07T15:28:29;15.30;38.80
23395;DHT22;11870;53.084;18.206;2023-05-07T15:30:55;16.50;40.10
23395;DHT22;11870;53.084;18.206;2023-05-07T15:33:21;15.80;38.60
23395;DHT22;11870;53.084;18.206;2023-05-07T15:35:47;15.40;38.80
23395;DHT22;11870;53.084;18.206;2023-05-07T15:38:13;17.10;39.60
23395;DHT22;11870;53.084;18.206;2023-05-07T15:40:39;15.30;38.30
23395;DHT22;11870;53.084;18.206;2023-05-07T15:43:09;15.20;38.10
23395;DHT22;11870;53.084;18.206;2023-05-07T15:45:39;15.40;38.90
23395;DHT22;11870;53.084;18.206;2023-05-07T15:48:07;15.60;38.30
23395;DHT22;11870;53.084;18.206;2023-05-07T15:50:33;17.80;39.60
23395;DHT22;11870;53.084;18.206;2023-05-07T15:52:59;15.10;38.10
23395;DHT22;11870;53.084;18.206;2023-05-07T15:55:25;16.30;40.10
23395;DHT22;11870;53.084;18.206;2023-05-07T15:57:51;16.30;39.00
23395;DHT22;11870;53.084;18.206;2023-05-07T16:00:20;15.10;38.40
23395;DHT22;11870;53.084;18.206;2023-05-07T16:02:46;15.10;38.50
23395;DHT22;11870;53.084;18.206;2023-05-07T16:05:12;15.10;38.90
23395;DHT22;11870;53.084;18.206;2023-05-07T16:07:39;16.20;40.40
23395;DHT22;11870;53.084;18.206;2023-05-07T16:10:09;18.20;41.50
23395;DHT22;11870;53.084;18.206;2023-05-07T16:12:35;15.30;38.70
23395;DHT22;11870;53.084;18.206;2023-05-07T16:15:01;15.40;37.80
23395;DHT22;11870;53.084;18.206;2023-05-07T16:17:27;17.20;38.70
23395;DHT22;11870;53.084;18.206;2023-05-07T16:19:53;15.30;38.10
23395;DHT22;11870;53.084;18.206;2023-05-07T16:22:19;15.00;37.40
23395;DHT22;11870;53.084;18.206;2023-05-07T16:24:45;15.00;38.20
23395;DHT22;11870;53.084;18.206;2023-05-07T16:27:11;15.00;38.80
23395;DHT22;11870;53.084;18.206;2023-05-07T16:29:37;14.90;39.30
23395;DHT22;11870;53.084;18.206;2023-05-07T16:32:03;15.60;38.70
23395;DHT22;11870;53.084;18.206;2023-05-07T16:34:29;15.00;38.90
23395;DHT22;11870;53.084;18.206;2023-05-07T16:36:55;15.10;38.40
23395;DHT22;11870;53.084;18.206;2023-05-07T16:39:22;15.10;38.70
23395;DHT22;11870;53.084;18.206;2023-05-07T16:41:48;15.10;38.60
23395;DHT22;11870;53.084;18.206;2023-05-07T16:44:16;15.10;39.00
23395;DHT22;11870;53.084;18.206;2023-05-07T16:46:42;15.10;38.10
23395;DHT22;11870;53.084;18.206;2023-05-07T16:49:08;15.00;39.00
23395;DHT22;11870;53.084;18.206;2023-05-07T16:51:34;16.40;39.30
23395;DHT22;11870;53.084;18.206;2023-05-07T16:54:00;16.30;39.50
23395;DHT22;11870;53.084;18.206;2023-05-07T16:56:26;15.00;39.10
23395;DHT22;11870;53.084;18.206;2023-05-07T17:01:18;14.70;39.00
23395;DHT22;11870;53.084;18.206;2023-05-07T17:03:44;16.50;40.70
23395;DHT22;11870;53.084;18.206;2023-05-07T17:06:10;16.10;40.50
23395;DHT22;11870;53.084;18.206;2023-05-07T17:08:42;14.80;39.30
23395;DHT22;11870;53.084;18.206;2023-05-07T17:11:09;14.90;39.30
23395;DHT22;11870;53.084;18.206;2023-05-07T17:13:35;14.70;38.70
23395;DHT22;11870;53.084;18.206;2023-05-07T17:16:01;16.40;40.70
23395;DHT22;11870;53.084;18.206;2023-05-07T17:18:27;16.60;40.10
23395;DHT22;11870;53.084;18.206;2023-05-07T17:20:53;14.60;38.90
23395;DHT22;11870;53.084;18.206;2023-05-07T17:23:19;14.80;39.70
23395;DHT22;11870;53.084;18.206;2023-05-07T17:25:45;15.10;40.10
23395;DHT22;11870;53.084;18.206;2023-05-07T17:28:11;14.40;40.30
23395;DHT22;11870;53.084;18.206;2023-05-07T17:30:38;14.20;40.70
23395;DHT22;11870;53.084;18.206;2023-05-07T17:33:04;14.20;40.90
23395;DHT22;11870;53.084;18.206;2023-05-07T17:35:30;14.90;40.70
23395;DHT22;11870;53.084;18.206;2023-05-07T17:37:57;14.40;40.30
23395;DHT22;11870;53.084;18.206;2023-05-07T17:40:24;14.40;40.70
23395;DHT22;11870;53.084;18.206;2023-05-07T17:42:51;15.30;41.20
23395;DHT22;11870;53.084;18.206;2023-05-07T17:45:17;14.20;41.30
23395;DHT22;11870;53.084;18.206;2023-05-07T17:47:43;14.00;42.20
23395;DHT22;11870;53.084;18.206;2023-05-07T17:50:09;14.00;42.90
23395;DHT22;11870;53.084;18.206;2023-05-07T17:52:36;13.80;43.50
23395;DHT22;11870;53.084;18.206;2023-05-07T17:55:02;14.30;45.00